Portada
METAR-TAF:

METAR-TAF

Aeroports :

Iași, Romania

latitud: 47-10N, longitud: 027-38E, altitud: 102 m

Observació

L'informe es va fer fa 38 minuts, a les 15:00 UTC
Vent 8 kt del Nord-Est
Temperatura 21°C
Humitat 88%
Pressió 1016 hPa
Visibilitat 10 km o més
Escasses núvols a una alçada de 2400 ft

METAR: LRIA 181500Z 04008KT 9999 FEW024 21/19 Q1016 R14/29//95

Hora: 18:38 (15:38 UTC)

Pronòstic

L'informe es va fer fa 1 hora i 38 minuts, a les 14:00 UTC
Pronòstic vàlid del 18 a les 15 UTC al 19 a les 00 UTC
Vent 8 kt del Nord-Est
Visibilitat 10 km o més
Cel ennuvolat a una alçada de 4000 ft
Temporalment
l' 18 a les 15 UTC al 18 a les 18 UTC
Visibilitat: 5000 m
Cel ennuvolat a una alçada de 1500 ft
Cel ennuvolat a una alçada de 3000 ft, Cumulonimbus.
xàfecs de pluja
Probabilitat 30%
l' 18 a les 15 UTC al 18 a les 17 UTC
tempesta, pluja

TAF: LRIA 181400Z 1815/1900 05008KT 9999 BKN040 TEMPO 1815/1818 5000 -SHRA BKN015 BKN030CB PROB30 1815/1817 -TSRA

Observacions i pronòstics meteorològics de més de 4000 aeroports (METAR i TAF).

Les estacions disponibles són els punts grocs i vermells al mapa.

Posi el ratolí al punt desitjat per veure el nom de l'estació.

Feu clic per veure les observacions i els pronòstics meteorològics.

Per canviar el mapa: feu clic els botons verds amb una creu de color negre per apropar; al botó verd amb un guió per allunyar la imatge; o en les fletxes verdes per a mapes adjacents.


METAR-TAF: